createdAt,value
2023-03-21T00:01:29.385Z,5.78
2023-03-21T00:03:55.663Z,5.74
2023-03-21T00:06:21.925Z,5.74
2023-03-21T00:08:48.333Z,5.72
2023-03-21T00:11:14.560Z,5.77
2023-03-21T00:13:40.800Z,5.81
2023-03-21T00:16:12.609Z,5.76
2023-03-21T00:18:44.725Z,5.67
2023-03-21T00:21:39.215Z,5.53
2023-03-21T00:23:57.196Z,5.59
2023-03-21T00:26:23.428Z,5.45
2023-03-21T00:28:49.654Z,5.47
2023-03-21T00:31:15.911Z,5.48
2023-03-21T00:33:42.131Z,5.46
2023-03-21T00:36:08.865Z,5.57
2023-03-21T00:38:35.331Z,5.74
2023-03-21T00:41:10.945Z,5.72
2023-03-21T00:43:41.338Z,5.63
2023-03-21T00:46:07.600Z,5.79
2023-03-21T00:48:33.919Z,5.84
2023-03-21T00:51:00.178Z,5.89
2023-03-21T00:53:26.443Z,5.94
2023-03-21T00:55:52.709Z,6.10
2023-03-21T00:58:18.956Z,6.03
2023-03-21T01:00:45.215Z,5.96
2023-03-21T01:03:23.634Z,5.77
2023-03-21T01:05:50.472Z,5.85
2023-03-21T01:08:26.550Z,5.90
2023-03-21T01:10:54.394Z,5.94
2023-03-21T01:13:20.645Z,5.92
2023-03-21T01:15:46.958Z,5.86
2023-03-21T01:18:13.247Z,5.80
2023-03-21T01:20:39.490Z,5.78
2023-03-21T01:23:05.724Z,5.70
2023-03-21T01:25:31.973Z,5.69
2023-03-21T01:27:58.208Z,5.66
2023-03-21T01:30:24.989Z,5.74
2023-03-21T01:32:52.878Z,5.71
2023-03-21T01:35:19.172Z,5.80
2023-03-21T01:37:45.409Z,5.83
2023-03-21T01:40:11.672Z,5.80
2023-03-21T01:42:37.961Z,5.68
2023-03-21T01:45:04.211Z,5.73
2023-03-21T01:47:30.458Z,5.71
2023-03-21T01:49:56.724Z,5.64
2023-03-21T01:52:35.463Z,5.66
2023-03-21T01:55:03.109Z,5.58
2023-03-21T01:57:35.486Z,5.53
2023-03-21T02:00:07.433Z,5.55
2023-03-21T02:02:33.685Z,5.52
2023-03-21T02:05:02.287Z,5.52
2023-03-21T02:07:28.524Z,5.47
2023-03-21T02:09:54.854Z,5.53
2023-03-21T02:12:21.094Z,5.57
2023-03-21T02:14:47.304Z,5.55
2023-03-21T02:17:13.550Z,5.49
2023-03-21T02:19:50.971Z,5.49
2023-03-21T02:22:18.795Z,5.47
2023-03-21T02:24:48.867Z,5.42
2023-03-21T02:27:17.669Z,5.36
2023-03-21T02:29:43.905Z,5.32
2023-03-21T02:32:20.257Z,5.31
2023-03-21T02:34:54.507Z,5.29
2023-03-21T02:37:23.554Z,5.26
2023-03-21T02:39:55.041Z,5.26
2023-03-21T02:42:21.279Z,5.26
2023-03-21T02:44:47.528Z,5.26
2023-03-21T02:47:13.873Z,5.29
2023-03-21T02:49:40.182Z,5.30
2023-03-21T02:52:15.505Z,5.29
2023-03-21T02:54:48.376Z,5.24
2023-03-21T02:57:15.030Z,5.25
2023-03-21T02:59:51.591Z,5.33
2023-03-21T03:02:19.758Z,5.24
2023-03-21T03:04:45.996Z,5.24
2023-03-21T03:07:12.262Z,5.20
2023-03-21T03:09:38.524Z,5.15
2023-03-21T03:12:04.768Z,5.14
2023-03-21T03:14:53.006Z,5.10
2023-03-21T03:17:17.223Z,5.03
2023-03-21T03:19:49.979Z,5.05
2023-03-21T03:22:16.950Z,5.08
2023-03-21T03:24:43.421Z,5.02
2023-03-21T03:27:09.707Z,4.99
2023-03-21T03:29:36.129Z,4.98
2023-03-21T03:32:02.449Z,5.00
2023-03-21T03:34:28.751Z,5.06
2023-03-21T03:36:55.054Z,5.04
2023-03-21T03:39:21.316Z,5.05
2023-03-21T03:42:07.883Z,4.95
2023-03-21T03:44:34.735Z,4.85
2023-03-21T03:47:01.037Z,4.80
2023-03-21T03:49:27.281Z,4.77
2023-03-21T03:51:53.534Z,4.75
2023-03-21T03:54:19.828Z,4.86
2023-03-21T03:56:46.082Z,4.92
2023-03-21T03:59:12.319Z,4.97
2023-03-21T04:01:38.678Z,4.96
2023-03-21T04:04:12.905Z,4.93
2023-03-21T04:06:39.679Z,4.97
2023-03-21T04:09:18.798Z,4.99
2023-03-21T04:11:46.702Z,5.00
2023-03-21T04:14:12.979Z,5.04
2023-03-21T04:16:39.332Z,5.13
2023-03-21T04:19:05.620Z,5.08
2023-03-21T04:21:31.849Z,5.08
2023-03-21T04:23:58.088Z,5.13
2023-03-21T04:26:24.341Z,5.10
2023-03-21T04:28:50.583Z,5.06
2023-03-21T04:31:25.641Z,5.07
2023-03-21T04:33:52.566Z,5.07
2023-03-21T04:36:18.889Z,5.06
2023-03-21T04:38:45.130Z,5.03
2023-03-21T04:41:11.430Z,5.08
2023-03-21T04:43:37.672Z,5.06
2023-03-21T04:46:03.955Z,5.09
2023-03-21T04:48:30.247Z,5.15
2023-03-21T04:50:56.488Z,5.16
2023-03-21T04:53:22.754Z,5.13
2023-03-21T04:55:52.421Z,5.11
2023-03-21T04:58:19.766Z,5.08
2023-03-21T05:00:46.035Z,5.12
2023-03-21T05:03:12.319Z,5.11
2023-03-21T05:05:38.872Z,5.14
2023-03-21T05:08:05.388Z,5.12
2023-03-21T05:10:31.629Z,5.12
2023-03-21T05:12:57.868Z,5.13
2023-03-21T05:15:24.094Z,5.12
2023-03-21T05:17:50.347Z,5.19
2023-03-21T05:20:16.595Z,5.22
2023-03-21T05:22:42.831Z,5.24
2023-03-21T05:25:09.072Z,5.21
2023-03-21T05:27:35.301Z,5.17
2023-03-21T05:30:01.544Z,5.26
2023-03-21T05:32:27.761Z,5.20
2023-03-21T05:34:53.992Z,5.20
2023-03-21T05:37:20.254Z,5.21
2023-03-21T05:39:46.509Z,5.24
2023-03-21T05:42:12.746Z,5.30
2023-03-21T05:44:38.967Z,5.35
2023-03-21T05:47:05.220Z,5.33
2023-03-21T05:49:31.460Z,5.37
2023-03-21T05:51:57.717Z,5.34
2023-03-21T05:54:23.974Z,5.35
2023-03-21T05:56:50.231Z,5.46
2023-03-21T05:59:16.482Z,5.57
2023-03-21T06:01:42.725Z,5.63
2023-03-21T06:04:09.033Z,5.71
2023-03-21T06:06:35.592Z,5.68
2023-03-21T06:09:01.840Z,5.69
2023-03-21T06:11:28.089Z,5.85
2023-03-21T06:13:54.354Z,5.95
2023-03-21T06:16:20.656Z,6.07
2023-03-21T06:18:46.897Z,6.14
2023-03-21T06:21:13.166Z,6.25
2023-03-21T06:23:39.397Z,6.30
2023-03-21T06:26:08.169Z,6.32
2023-03-21T06:28:34.416Z,6.48
2023-03-21T06:31:00.691Z,6.59
2023-03-21T06:33:26.945Z,6.70
2023-03-21T06:35:53.790Z,6.78
2023-03-21T06:38:20.258Z,6.88
2023-03-21T06:40:46.953Z,6.97
2023-03-21T06:43:13.531Z,7.05
2023-03-21T06:45:39.910Z,7.05
2023-03-21T06:48:08.765Z,7.12
2023-03-21T06:50:35.434Z,7.19
2023-03-21T06:53:01.674Z,7.28
2023-03-21T06:55:27.924Z,7.38
2023-03-21T06:57:54.174Z,7.47
2023-03-21T07:00:20.434Z,7.58
2023-03-21T07:02:46.891Z,7.58
2023-03-21T07:05:13.769Z,7.69
2023-03-21T07:07:40.089Z,7.71
2023-03-21T07:10:06.423Z,7.83
2023-03-21T07:12:32.713Z,7.89
2023-03-21T07:14:59.116Z,7.82
2023-03-21T07:17:25.582Z,7.99
2023-03-21T07:19:52.125Z,8.11
2023-03-21T07:22:18.513Z,8.32
2023-03-21T07:24:47.275Z,8.40
2023-03-21T07:27:15.438Z,8.55
2023-03-21T07:29:42.154Z,8.72
2023-03-21T07:32:08.556Z,8.75
2023-03-21T07:34:35.196Z,8.95
2023-03-21T07:37:01.497Z,9.08
2023-03-21T07:39:27.767Z,9.16
2023-03-21T07:44:34.200Z,9.29
2023-03-21T07:47:00.469Z,9.40
2023-03-21T07:49:26.754Z,9.48
2023-03-21T07:51:53.029Z,9.56
2023-03-21T07:54:19.347Z,9.64
2023-03-21T07:56:45.777Z,9.74
2023-03-21T07:59:12.155Z,9.73
2023-03-21T08:01:38.666Z,9.78
2023-03-21T08:04:04.911Z,9.81
2023-03-21T08:06:33.229Z,9.84
2023-03-21T08:08:59.485Z,9.89
2023-03-21T08:11:25.771Z,9.88
2023-03-21T08:13:52.047Z,9.78
2023-03-21T08:16:19.036Z,9.42
2023-03-21T08:18:45.355Z,9.37
2023-03-21T08:21:11.708Z,9.28
2023-03-21T08:23:37.994Z,9.36
2023-03-21T08:26:04.289Z,9.42
2023-03-21T08:28:30.520Z,9.46
2023-03-21T08:30:56.821Z,9.49
2023-03-21T08:33:23.132Z,9.44
2023-03-21T08:35:49.478Z,9.50
2023-03-21T08:38:15.838Z,9.44
2023-03-21T08:40:42.124Z,9.40
2023-03-21T08:43:08.466Z,9.35
2023-03-21T08:45:34.733Z,9.30
2023-03-21T08:48:01.075Z,9.18
2023-03-21T08:50:27.353Z,9.25
2023-03-21T08:52:53.811Z,9.10
2023-03-21T08:55:20.503Z,9.18
2023-03-21T08:57:46.789Z,9.30
2023-03-21T09:00:13.091Z,9.49
2023-03-21T09:02:39.388Z,9.61
2023-03-21T09:05:05.668Z,9.78
2023-03-21T09:07:31.960Z,9.79
2023-03-21T09:10:21.092Z,9.81
2023-03-21T09:13:08.268Z,9.84
2023-03-21T09:15:54.600Z,9.68
2023-03-21T09:18:40.865Z,9.83
2023-03-21T09:21:07.199Z,9.79
2023-03-21T09:23:33.444Z,9.98
2023-03-21T09:25:59.691Z,9.97
2023-03-21T09:28:25.992Z,10.13
2023-03-21T09:30:52.344Z,10.28
2023-03-21T09:33:18.616Z,10.32
2023-03-21T09:35:44.942Z,10.36
2023-03-21T09:38:11.278Z,10.33
2023-03-21T09:40:37.786Z,10.51
2023-03-21T09:43:04.095Z,10.68
2023-03-21T09:45:30.326Z,10.54
2023-03-21T09:47:56.672Z,10.68
2023-03-21T09:50:22.932Z,10.71
2023-03-21T09:52:49.153Z,10.62
2023-03-21T09:55:15.406Z,11.02
2023-03-21T09:57:41.808Z,11.36
2023-03-21T10:00:08.277Z,11.42
2023-03-21T10:02:34.584Z,11.69
2023-03-21T10:05:01.437Z,11.80
2023-03-21T10:07:30.134Z,12.02
2023-03-21T10:09:56.643Z,12.24
2023-03-21T10:12:23.054Z,12.34
2023-03-21T10:14:49.411Z,12.60
2023-03-21T10:17:15.896Z,12.73
2023-03-21T10:19:42.343Z,13.00
2023-03-21T10:22:08.753Z,12.96
2023-03-21T10:24:35.135Z,13.09
2023-03-21T10:27:01.560Z,13.34
2023-03-21T10:29:27.887Z,13.44
2023-03-21T10:31:54.946Z,13.34
2023-03-21T10:34:21.238Z,13.45
2023-03-21T10:36:47.504Z,13.67
2023-03-21T10:39:13.828Z,13.87
2023-03-21T10:41:40.089Z,14.05
2023-03-21T10:44:06.327Z,14.18
2023-03-21T10:46:35.445Z,14.25
2023-03-21T10:49:02.203Z,14.33
2023-03-21T10:51:28.617Z,14.31
2023-03-21T10:53:54.884Z,14.44
2023-03-21T10:56:21.123Z,14.50
2023-03-21T10:58:47.381Z,14.25
2023-03-21T11:01:13.861Z,14.40
2023-03-21T11:03:40.160Z,14.20
2023-03-21T11:06:06.404Z,14.01
2023-03-21T11:08:32.650Z,13.94
2023-03-21T11:10:58.991Z,14.03
2023-03-21T11:13:25.331Z,14.09
2023-03-21T11:15:51.602Z,14.36
2023-03-21T11:18:17.867Z,14.42
2023-03-21T11:20:44.147Z,14.44
2023-03-21T11:23:10.390Z,14.76
2023-03-21T11:25:37.012Z,14.99
2023-03-21T11:28:03.552Z,15.15
2023-03-21T11:30:29.816Z,15.35
2023-03-21T11:32:56.093Z,15.43
2023-03-21T11:35:22.408Z,15.55
2023-03-21T11:37:48.670Z,15.42
2023-03-21T11:40:16.061Z,15.46
2023-03-21T11:42:42.313Z,15.76
2023-03-21T11:45:08.569Z,15.52
2023-03-21T11:47:34.821Z,15.84
2023-03-21T11:50:05.025Z,15.91
2023-03-21T11:52:32.529Z,15.83
2023-03-21T11:55:01.043Z,15.86
2023-03-21T11:57:27.306Z,16.01
2023-03-21T11:59:53.561Z,16.11
2023-03-21T12:02:19.851Z,15.94
2023-03-21T12:04:46.199Z,15.30
2023-03-21T12:07:12.485Z,15.69
2023-03-21T12:09:38.754Z,15.95
2023-03-21T12:12:05.006Z,16.12
2023-03-21T12:14:31.316Z,16.35
2023-03-21T12:16:57.619Z,16.30
2023-03-21T12:19:23.869Z,16.40
2023-03-21T12:21:50.130Z,16.50
2023-03-21T12:24:16.460Z,16.58
2023-03-21T12:26:42.851Z,16.49
2023-03-21T12:29:09.091Z,16.75
2023-03-21T12:31:35.426Z,16.87
2023-03-21T12:34:01.687Z,16.72
2023-03-21T12:36:28.006Z,16.64
2023-03-21T12:38:54.448Z,16.62
2023-03-21T12:41:20.691Z,16.73
2023-03-21T12:43:46.959Z,16.49
2023-03-21T12:46:13.206Z,16.41
2023-03-21T12:48:39.456Z,16.51
2023-03-21T12:51:05.704Z,16.28
2023-03-21T12:53:31.949Z,15.86
2023-03-21T12:55:58.300Z,16.11
2023-03-21T12:58:24.532Z,16.29
2023-03-21T13:00:50.810Z,16.17
2023-03-21T13:03:18.305Z,16.28
2023-03-21T13:05:45.785Z,16.29
2023-03-21T13:08:12.051Z,16.21
2023-03-21T13:10:38.518Z,16.45
2023-03-21T13:13:04.837Z,16.70
2023-03-21T13:15:31.103Z,16.81
2023-03-21T13:17:57.392Z,16.62
2023-03-21T13:20:23.650Z,16.43
2023-03-21T13:22:50.326Z,16.55
2023-03-21T13:25:16.607Z,16.71
2023-03-21T13:27:42.859Z,16.91
2023-03-21T13:30:09.239Z,16.87
2023-03-21T13:32:35.840Z,16.94
2023-03-21T13:35:02.175Z,17.04
2023-03-21T13:37:28.437Z,17.27
2023-03-21T13:39:54.691Z,17.16
2023-03-21T13:42:20.964Z,17.27
2023-03-21T13:44:49.649Z,17.38
2023-03-21T13:47:16.493Z,17.31
2023-03-21T13:49:42.742Z,17.39
2023-03-21T13:52:08.989Z,16.93
2023-03-21T13:54:35.257Z,17.38
2023-03-21T13:57:01.683Z,17.44
2023-03-21T13:59:27.971Z,17.45
2023-03-21T14:01:54.214Z,17.50
2023-03-21T14:04:22.473Z,17.49
2023-03-21T14:06:52.685Z,17.61
2023-03-21T14:09:18.936Z,17.44
2023-03-21T14:11:47.072Z,17.62
2023-03-21T14:14:13.591Z,17.80
2023-03-21T14:16:39.851Z,17.66
2023-03-21T14:19:06.219Z,17.47
2023-03-21T14:21:32.523Z,17.28
2023-03-21T14:23:58.869Z,17.45
2023-03-21T14:26:25.632Z,17.57
2023-03-21T14:28:51.997Z,17.49
2023-03-21T14:31:18.333Z,17.19
2023-03-21T14:33:44.695Z,16.53
2023-03-21T14:36:11.207Z,16.29
2023-03-21T14:38:37.612Z,16.15
2023-03-21T14:41:03.979Z,16.28
2023-03-21T14:43:30.296Z,16.26
2023-03-21T14:45:56.676Z,16.19
2023-03-21T14:48:23.062Z,16.38
2023-03-21T14:50:49.373Z,16.37
2023-03-21T14:53:15.711Z,16.69
2023-03-21T14:55:41.980Z,16.68
2023-03-21T14:58:08.324Z,16.45
2023-03-21T15:00:34.619Z,15.94
2023-03-21T15:03:00.906Z,16.00
2023-03-21T15:05:27.240Z,16.05
2023-03-21T15:07:53.504Z,16.15
2023-03-21T15:10:19.785Z,16.19
2023-03-21T15:12:46.042Z,16.19
2023-03-21T15:15:12.340Z,16.47
2023-03-21T15:17:38.611Z,16.38
2023-03-21T15:20:04.918Z,16.06
2023-03-21T15:22:31.224Z,16.39
2023-03-21T15:24:58.621Z,16.39
2023-03-21T15:27:24.875Z,16.46
2023-03-21T15:29:51.151Z,15.71
2023-03-21T15:32:17.412Z,15.83
2023-03-21T15:34:43.669Z,15.91
2023-03-21T15:37:09.929Z,16.02
2023-03-21T15:39:36.185Z,15.98
2023-03-21T15:42:02.469Z,15.96
2023-03-21T15:44:28.728Z,15.20
2023-03-21T15:46:55.043Z,15.33
2023-03-21T15:49:21.301Z,15.34
2023-03-21T15:51:47.586Z,15.35
2023-03-21T15:54:15.261Z,15.40
2023-03-21T15:56:42.550Z,15.49
2023-03-21T15:59:08.760Z,15.20
2023-03-21T16:01:35.050Z,14.80
2023-03-21T16:04:01.267Z,14.67
2023-03-21T16:06:27.510Z,14.72
2023-03-21T16:08:53.769Z,14.61
2023-03-21T16:11:20.021Z,14.82
2023-03-21T16:13:46.300Z,15.02
2023-03-21T16:16:12.599Z,15.18
2023-03-21T16:18:39.645Z,15.13
2023-03-21T16:21:05.914Z,15.20
2023-03-21T16:23:32.153Z,15.22
2023-03-21T16:25:58.387Z,15.23
2023-03-21T16:28:24.667Z,15.19
2023-03-21T16:30:50.910Z,15.19
2023-03-21T16:33:17.240Z,15.12
2023-03-21T16:35:43.571Z,15.12
2023-03-21T16:38:09.801Z,15.04
2023-03-21T16:40:37.281Z,14.94
2023-03-21T16:43:03.765Z,14.93
2023-03-21T16:45:30.095Z,14.90
2023-03-21T16:47:56.367Z,14.87
2023-03-21T16:50:22.664Z,14.81
2023-03-21T16:52:49.041Z,14.73
2023-03-21T16:55:15.289Z,14.70
2023-03-21T16:57:41.643Z,14.70
2023-03-21T17:00:07.909Z,14.68
2023-03-21T17:02:34.137Z,14.64
2023-03-21T17:05:01.310Z,14.61
2023-03-21T17:07:28.316Z,14.50
2023-03-21T17:09:54.536Z,14.40
2023-03-21T17:12:20.800Z,14.30
2023-03-21T17:14:47.033Z,14.20
2023-03-21T17:17:13.268Z,14.17
2023-03-21T17:19:39.503Z,14.07
2023-03-21T17:22:05.717Z,13.99
2023-03-21T17:24:31.958Z,13.82
2023-03-21T17:26:58.202Z,13.61
2023-03-21T17:29:24.454Z,13.46
2023-03-21T17:31:50.689Z,13.36
2023-03-21T17:34:16.942Z,13.34
2023-03-21T17:36:43.178Z,13.19
2023-03-21T17:39:09.450Z,13.15
2023-03-21T17:41:35.725Z,13.10
2023-03-21T17:44:01.986Z,13.09
2023-03-21T17:46:28.249Z,13.09
2023-03-21T17:48:54.528Z,12.99
2023-03-21T17:51:20.786Z,12.85
2023-03-21T17:53:47.092Z,12.74
2023-03-21T17:56:13.351Z,12.58
2023-03-21T17:58:39.582Z,12.56
2023-03-21T18:01:05.884Z,12.49
2023-03-21T18:03:32.100Z,12.43
2023-03-21T18:05:58.381Z,12.40
2023-03-21T18:08:24.641Z,12.35
2023-03-21T18:10:50.868Z,12.28
2023-03-21T18:13:17.103Z,12.20
2023-03-21T18:15:44.648Z,12.15
2023-03-21T18:18:11.283Z,12.05
2023-03-21T18:20:54.469Z,11.90
2023-03-21T18:23:21.245Z,11.88
2023-03-21T18:25:47.834Z,11.80
2023-03-21T18:28:14.214Z,11.76
2023-03-21T18:33:26.721Z,11.61
2023-03-21T18:35:58.787Z,11.53
2023-03-21T18:38:25.713Z,11.58
2023-03-21T18:40:51.975Z,11.55
2023-03-21T18:46:04.658Z,11.40
2023-03-21T18:48:33.034Z,11.33
2023-03-21T18:51:00.249Z,11.25
2023-03-21T18:53:26.534Z,11.22
2023-03-21T18:55:52.817Z,11.17
2023-03-21T18:58:19.079Z,11.14
2023-03-21T19:00:45.389Z,11.13
2023-03-21T19:03:21.805Z,11.07
2023-03-21T19:05:57.923Z,11.00
2023-03-21T19:08:24.213Z,10.95
2023-03-21T19:10:51.117Z,10.89
2023-03-21T19:13:17.421Z,10.82
2023-03-21T19:15:43.641Z,10.75
2023-03-21T19:20:56.072Z,10.48
2023-03-21T19:23:22.486Z,10.25
2023-03-21T19:25:48.841Z,10.09
2023-03-21T19:28:15.103Z,10.06
2023-03-21T19:30:49.304Z,10.05
2023-03-21T19:33:16.213Z,10.18
2023-03-21T19:35:42.535Z,10.20
2023-03-21T19:38:08.878Z,10.19
2023-03-21T19:40:35.160Z,10.20
2023-03-21T19:43:14.299Z,10.24
2023-03-21T19:45:47.674Z,10.30
2023-03-21T19:48:14.040Z,10.29
2023-03-21T19:51:00.490Z,10.24
2023-03-21T19:53:26.697Z,10.20
2023-03-21T19:55:54.138Z,10.16
2023-03-21T19:58:22.696Z,10.14
2023-03-21T20:00:49.062Z,10.14
2023-03-21T20:03:15.409Z,10.11
2023-03-21T20:05:41.700Z,10.07
2023-03-21T20:08:10.824Z,10.01
2023-03-21T20:10:37.569Z,9.86
2023-03-21T20:13:04.056Z,9.93
2023-03-21T20:15:30.821Z,9.93
2023-03-21T20:17:57.193Z,9.89
2023-03-21T20:20:23.448Z,9.98
2023-03-21T20:25:35.959Z,10.04
2023-03-21T20:28:25.061Z,10.03
2023-03-21T20:30:48.567Z,10.02
2023-03-21T20:33:14.838Z,9.89
2023-03-21T20:38:27.595Z,9.86
2023-03-21T20:40:53.836Z,9.86
2023-03-21T20:44:13.994Z,9.85
2023-03-21T20:46:06.374Z,9.89
2023-03-21T20:48:32.665Z,9.85
2023-03-21T20:51:01.272Z,9.75
2023-03-21T20:53:28.136Z,9.68
2023-03-21T20:55:54.357Z,9.68
2023-03-21T20:58:51.628Z,9.65
2023-03-21T21:01:06.899Z,9.59
2023-03-21T21:03:33.201Z,9.55
2023-03-21T21:05:59.495Z,9.48
2023-03-21T21:08:25.797Z,9.44
2023-03-21T21:11:30.243Z,9.46
2023-03-21T21:13:38.270Z,9.36
2023-03-21T21:16:04.565Z,9.30
2023-03-21T21:18:30.859Z,9.25
2023-03-21T21:20:57.120Z,9.27
2023-03-21T21:23:25.494Z,9.22
2023-03-21T21:25:51.814Z,9.19
2023-03-21T21:28:18.089Z,9.14
2023-03-21T21:30:44.427Z,9.07
2023-03-21T21:33:10.682Z,9.06
2023-03-21T21:35:36.986Z,9.01
2023-03-21T21:38:03.312Z,8.91
2023-03-21T21:40:29.606Z,8.83
2023-03-21T21:42:55.868Z,8.81
2023-03-21T21:45:22.100Z,8.77
2023-03-21T21:47:48.402Z,8.69
2023-03-21T21:50:14.689Z,8.69
2023-03-21T21:52:40.964Z,8.65
2023-03-21T21:55:07.196Z,8.62
2023-03-21T21:57:33.448Z,8.53
2023-03-21T21:59:59.667Z,8.51
2023-03-21T22:02:25.919Z,8.52
2023-03-21T22:04:52.185Z,8.47
2023-03-21T22:07:18.445Z,8.52
2023-03-21T22:09:44.742Z,8.59
2023-03-21T22:12:11.018Z,8.59
2023-03-21T22:14:37.269Z,8.58
2023-03-21T22:17:03.529Z,8.56
2023-03-21T22:19:29.785Z,8.49
2023-03-21T22:21:56.044Z,8.47
2023-03-21T22:24:22.341Z,8.44
2023-03-21T22:26:48.640Z,8.34
2023-03-21T22:29:14.941Z,8.29
2023-03-21T22:31:41.189Z,8.24
2023-03-21T22:34:07.454Z,8.22
2023-03-21T22:36:33.704Z,8.22
2023-03-21T22:39:00.010Z,8.25
2023-03-21T22:41:26.291Z,8.19
2023-03-21T22:43:52.566Z,8.19
2023-03-21T22:46:18.857Z,8.18
2023-03-21T22:48:45.132Z,8.11
2023-03-21T22:51:11.672Z,8.12
2023-03-21T22:53:37.917Z,8.06
2023-03-21T22:56:04.165Z,8.05
2023-03-21T22:58:30.454Z,8.05
2023-03-21T23:00:56.723Z,8.05
2023-03-21T23:03:22.998Z,8.06
2023-03-21T23:05:49.278Z,7.97
2023-03-21T23:08:15.519Z,7.99
2023-03-21T23:10:42.355Z,7.94
2023-03-21T23:13:08.976Z,7.95
2023-03-21T23:15:35.265Z,7.88
2023-03-21T23:18:01.500Z,7.90
2023-03-21T23:20:27.774Z,7.94
2023-03-21T23:22:54.038Z,7.99
2023-03-21T23:25:20.292Z,7.86
2023-03-21T23:27:46.541Z,7.81
2023-03-21T23:30:12.781Z,7.76
2023-03-21T23:32:39.034Z,7.77
2023-03-21T23:35:05.313Z,7.77
2023-03-21T23:37:31.597Z,7.74
2023-03-21T23:39:57.827Z,7.82
2023-03-21T23:42:24.082Z,7.80
2023-03-21T23:44:50.322Z,7.81
2023-03-21T23:47:16.569Z,7.85
2023-03-21T23:49:42.813Z,7.93
2023-03-21T23:52:09.108Z,7.94
2023-03-21T23:54:35.412Z,7.99
2023-03-21T23:57:01.662Z,7.91
2023-03-21T23:59:27.917Z,7.78
